Glendale, Rhode Island
Current Conditions -  °F | °C
As of 4:15 AM on Sunday 21 Dec 2014 (Local Time) from KSFZ Reporting Station
Overcast Overcast  
Wind Chill: 23°   Ceiling: 900
Heat Index: 30°   Visibility: 10mi
Dew Point: 23°   Wind: 7mph
Humidity: 75%   Direction: 10°N
Pressure: 30.24"   Gusts: NA
Location:  41.98°N, 71.63°W
Report Text: KSFZ 210915Z 01006KT 10SM OVC009 M01/M05 A3024 RMK AO1
Loading
Personal Weather Stations






























Interactive Weather Map New forecast layout! Learn more

10-Day Weather Forecast

Advertisements
Track Severe Weather on mobile